sensor_id;sensor_type;location;lat;lon;timestamp;P1;durP1;ratioP1;P2;durP2;ratioP2
21554;SDS011;10938;44.794;-0.676;2023-05-31T00:00:11;5.22;;;3.40;;
21554;SDS011;10938;44.794;-0.676;2023-05-31T00:02:37;3.95;;;2.85;;
21554;SDS011;10938;44.794;-0.676;2023-05-31T00:05:02;6.93;;;3.70;;
21554;SDS011;10938;44.794;-0.676;2023-05-31T00:07:27;9.38;;;3.95;;
21554;SDS011;10938;44.794;-0.676;2023-05-31T00:09:52;5.60;;;3.43;;
21554;SDS011;10938;44.794;-0.676;2023-05-31T00:12:18;6.93;;;3.60;;
21554;SDS011;10938;44.794;-0.676;2023-05-31T00:14:45;7.78;;;3.45;;
21554;SDS011;10938;44.794;-0.676;2023-05-31T00:17:10;8.23;;;4.28;;
21554;SDS011;10938;44.794;-0.676;2023-05-31T00:19:36;8.70;;;4.00;;
21554;SDS011;10938;44.794;-0.676;2023-05-31T00:22:01;7.17;;;4.20;;
21554;SDS011;10938;44.794;-0.676;2023-05-31T00:24:26;7.47;;;4.40;;
21554;SDS011;10938;44.794;-0.676;2023-05-31T00:26:51;5.50;;;3.65;;
21554;SDS011;10938;44.794;-0.676;2023-05-31T00:29:17;5.47;;;3.60;;
21554;SDS011;10938;44.794;-0.676;2023-05-31T00:31:42;8.90;;;4.20;;
21554;SDS011;10938;44.794;-0.676;2023-05-31T00:34:07;7.23;;;3.70;;
21554;SDS011;10938;44.794;-0.676;2023-05-31T00:36:35;12.88;;;3.78;;
21554;SDS011;10938;44.794;-0.676;2023-05-31T00:39:00;7.90;;;3.92;;
21554;SDS011;10938;44.794;-0.676;2023-05-31T00:41:26;5.67;;;3.60;;
21554;SDS011;10938;44.794;-0.676;2023-05-31T00:43:51;6.32;;;4.13;;
21554;SDS011;10938;44.794;-0.676;2023-05-31T00:46:26;5.47;;;3.58;;
21554;SDS011;10938;44.794;-0.676;2023-05-31T00:51:18;8.40;;;3.85;;
21554;SDS011;10938;44.794;-0.676;2023-05-31T00:53:43;4.68;;;3.42;;
21554;SDS011;10938;44.794;-0.676;2023-05-31T00:56:09;8.35;;;4.13;;
21554;SDS011;10938;44.794;-0.676;2023-05-31T00:58:35;5.63;;;3.75;;
21554;SDS011;10938;44.794;-0.676;2023-05-31T01:04:04;9.23;;;4.10;;
21554;SDS011;10938;44.794;-0.676;2023-05-31T01:06:31;6.72;;;3.58;;
21554;SDS011;10938;44.794;-0.676;2023-05-31T01:09:01;6.60;;;4.35;;
21554;SDS011;10938;44.794;-0.676;2023-05-31T01:14:18;8.85;;;4.25;;
21554;SDS011;10938;44.794;-0.676;2023-05-31T01:16:47;8.63;;;3.97;;
21554;SDS011;10938;44.794;-0.676;2023-05-31T01:19:26;6.93;;;3.28;;
21554;SDS011;10938;44.794;-0.676;2023-05-31T01:22:17;7.78;;;4.05;;
21554;SDS011;10938;44.794;-0.676;2023-05-31T01:24:53;7.05;;;3.83;;
21554;SDS011;10938;44.794;-0.676;2023-05-31T01:27:23;6.32;;;3.63;;
21554;SDS011;10938;44.794;-0.676;2023-05-31T01:29:48;6.78;;;3.78;;
21554;SDS011;10938;44.794;-0.676;2023-05-31T01:32:15;8.75;;;4.50;;
21554;SDS011;10938;44.794;-0.676;2023-05-31T01:34:44;8.63;;;4.22;;
21554;SDS011;10938;44.794;-0.676;2023-05-31T01:37:10;6.43;;;3.67;;
21554;SDS011;10938;44.794;-0.676;2023-05-31T01:39:35;8.13;;;3.90;;
21554;SDS011;10938;44.794;-0.676;2023-05-31T01:42:01;7.68;;;4.40;;
21554;SDS011;10938;44.794;-0.676;2023-05-31T01:44:26;8.38;;;3.90;;
21554;SDS011;10938;44.794;-0.676;2023-05-31T01:46:52;7.20;;;3.78;;
21554;SDS011;10938;44.794;-0.676;2023-05-31T01:49:17;6.50;;;3.95;;
21554;SDS011;10938;44.794;-0.676;2023-05-31T01:51:43;9.00;;;3.67;;
21554;SDS011;10938;44.794;-0.676;2023-05-31T01:54:09;8.13;;;4.32;;
21554;SDS011;10938;44.794;-0.676;2023-05-31T01:56:35;5.60;;;3.83;;
21554;SDS011;10938;44.794;-0.676;2023-05-31T01:59:01;6.20;;;4.18;;
21554;SDS011;10938;44.794;-0.676;2023-05-31T02:01:29;5.70;;;3.63;;
21554;SDS011;10938;44.794;-0.676;2023-05-31T02:03:54;9.50;;;4.40;;
21554;SDS011;10938;44.794;-0.676;2023-05-31T02:06:20;6.93;;;4.10;;
21554;SDS011;10938;44.794;-0.676;2023-05-31T02:08:46;6.45;;;3.78;;
21554;SDS011;10938;44.794;-0.676;2023-05-31T02:11:11;6.50;;;3.83;;
21554;SDS011;10938;44.794;-0.676;2023-05-31T02:13:36;6.68;;;3.55;;
21554;SDS011;10938;44.794;-0.676;2023-05-31T02:16:02;6.87;;;4.03;;
21554;SDS011;10938;44.794;-0.676;2023-05-31T02:18:31;6.13;;;3.83;;
21554;SDS011;10938;44.794;-0.676;2023-05-31T02:20:57;6.78;;;4.25;;
21554;SDS011;10938;44.794;-0.676;2023-05-31T02:23:23;8.18;;;3.65;;
21554;SDS011;10938;44.794;-0.676;2023-05-31T02:25:48;7.00;;;3.97;;
21554;SDS011;10938;44.794;-0.676;2023-05-31T02:28:14;6.43;;;3.33;;
21554;SDS011;10938;44.794;-0.676;2023-05-31T02:30:40;6.80;;;3.90;;
21554;SDS011;10938;44.794;-0.676;2023-05-31T02:33:06;6.78;;;3.72;;
21554;SDS011;10938;44.794;-0.676;2023-05-31T02:35:32;6.18;;;3.67;;
21554;SDS011;10938;44.794;-0.676;2023-05-31T02:37:57;7.63;;;4.22;;
21554;SDS011;10938;44.794;-0.676;2023-05-31T02:40:23;7.15;;;4.10;;
21554;SDS011;10938;44.794;-0.676;2023-05-31T02:42:48;13.77;;;4.20;;
21554;SDS011;10938;44.794;-0.676;2023-05-31T02:45:14;7.10;;;3.95;;
21554;SDS011;10938;44.794;-0.676;2023-05-31T02:47:39;6.03;;;3.92;;
21554;SDS011;10938;44.794;-0.676;2023-05-31T02:50:08;8.90;;;4.00;;
21554;SDS011;10938;44.794;-0.676;2023-05-31T02:52:34;6.85;;;3.67;;
21554;SDS011;10938;44.794;-0.676;2023-05-31T02:55:00;9.02;;;3.95;;
21554;SDS011;10938;44.794;-0.676;2023-05-31T02:57:26;7.60;;;4.30;;
21554;SDS011;10938;44.794;-0.676;2023-05-31T02:59:54;5.20;;;3.72;;
21554;SDS011;10938;44.794;-0.676;2023-05-31T03:02:20;11.10;;;4.20;;
21554;SDS011;10938;44.794;-0.676;2023-05-31T03:04:46;9.20;;;4.10;;
21554;SDS011;10938;44.794;-0.676;2023-05-31T03:07:11;8.20;;;4.35;;
21554;SDS011;10938;44.794;-0.676;2023-05-31T03:09:36;9.65;;;4.30;;
21554;SDS011;10938;44.794;-0.676;2023-05-31T03:12:02;5.67;;;3.87;;
21554;SDS011;10938;44.794;-0.676;2023-05-31T03:14:27;9.95;;;4.43;;
21554;SDS011;10938;44.794;-0.676;2023-05-31T03:16:52;8.00;;;4.23;;
21554;SDS011;10938;44.794;-0.676;2023-05-31T03:19:18;5.63;;;4.13;;
21554;SDS011;10938;44.794;-0.676;2023-05-31T03:21:43;8.05;;;4.05;;
21554;SDS011;10938;44.794;-0.676;2023-05-31T03:24:08;6.20;;;3.90;;
21554;SDS011;10938;44.794;-0.676;2023-05-31T03:26:34;6.47;;;4.10;;
21554;SDS011;10938;44.794;-0.676;2023-05-31T03:28:59;8.43;;;4.33;;
21554;SDS011;10938;44.794;-0.676;2023-05-31T03:31:28;6.83;;;4.17;;
21554;SDS011;10938;44.794;-0.676;2023-05-31T03:33:54;8.73;;;4.00;;
21554;SDS011;10938;44.794;-0.676;2023-05-31T03:36:19;9.05;;;4.30;;
21554;SDS011;10938;44.794;-0.676;2023-05-31T03:38:45;10.30;;;4.57;;
21554;SDS011;10938;44.794;-0.676;2023-05-31T03:41:10;8.90;;;4.50;;
21554;SDS011;10938;44.794;-0.676;2023-05-31T03:43:35;6.63;;;4.07;;
21554;SDS011;10938;44.794;-0.676;2023-05-31T03:46:01;9.00;;;4.27;;
21554;SDS011;10938;44.794;-0.676;2023-05-31T03:48:29;6.65;;;4.05;;
21554;SDS011;10938;44.794;-0.676;2023-05-31T03:50:55;8.23;;;4.47;;
21554;SDS011;10938;44.794;-0.676;2023-05-31T03:53:21;10.43;;;4.13;;
21554;SDS011;10938;44.794;-0.676;2023-05-31T03:55:46;10.03;;;4.20;;
21554;SDS011;10938;44.794;-0.676;2023-05-31T03:58:11;6.37;;;4.23;;
21554;SDS011;10938;44.794;-0.676;2023-05-31T04:00:37;8.38;;;4.32;;
21554;SDS011;10938;44.794;-0.676;2023-05-31T04:03:03;8.60;;;3.70;;
21554;SDS011;10938;44.794;-0.676;2023-05-31T04:05:28;8.30;;;3.90;;
21554;SDS011;10938;44.794;-0.676;2023-05-31T04:07:54;7.27;;;4.00;;
21554;SDS011;10938;44.794;-0.676;2023-05-31T04:10:19;7.83;;;4.07;;
21554;SDS011;10938;44.794;-0.676;2023-05-31T04:12:44;6.57;;;4.07;;
21554;SDS011;10938;44.794;-0.676;2023-05-31T04:15:09;5.70;;;3.93;;
21554;SDS011;10938;44.794;-0.676;2023-05-31T04:17:35;8.05;;;3.67;;
21554;SDS011;10938;44.794;-0.676;2023-05-31T04:20:00;7.47;;;4.10;;
21554;SDS011;10938;44.794;-0.676;2023-05-31T04:22:28;10.17;;;4.03;;
21554;SDS011;10938;44.794;-0.676;2023-05-31T04:24:54;8.73;;;4.07;;
21554;SDS011;10938;44.794;-0.676;2023-05-31T04:27:19;8.93;;;4.13;;
21554;SDS011;10938;44.794;-0.676;2023-05-31T04:29:44;8.77;;;4.07;;
21554;SDS011;10938;44.794;-0.676;2023-05-31T04:32:16;8.40;;;4.70;;
21554;SDS011;10938;44.794;-0.676;2023-05-31T04:34:41;10.10;;;4.40;;
21554;SDS011;10938;44.794;-0.676;2023-05-31T04:37:08;8.18;;;4.32;;
21554;SDS011;10938;44.794;-0.676;2023-05-31T04:39:34;6.53;;;4.03;;
21554;SDS011;10938;44.794;-0.676;2023-05-31T04:41:59;7.75;;;4.38;;
21554;SDS011;10938;44.794;-0.676;2023-05-31T04:44:24;8.43;;;4.43;;
21554;SDS011;10938;44.794;-0.676;2023-05-31T04:46:51;7.60;;;4.20;;
21554;SDS011;10938;44.794;-0.676;2023-05-31T04:49:16;9.02;;;4.13;;
21554;SDS011;10938;44.794;-0.676;2023-05-31T04:51:41;8.18;;;3.72;;
21554;SDS011;10938;44.794;-0.676;2023-05-31T04:54:07;5.20;;;3.72;;
21554;SDS011;10938;44.794;-0.676;2023-05-31T04:56:32;7.95;;;4.07;;
21554;SDS011;10938;44.794;-0.676;2023-05-31T04:58:58;9.80;;;3.92;;
21554;SDS011;10938;44.794;-0.676;2023-05-31T05:01:23;7.57;;;3.75;;
21554;SDS011;10938;44.794;-0.676;2023-05-31T05:03:49;6.72;;;4.20;;
21554;SDS011;10938;44.794;-0.676;2023-05-31T05:06:16;6.53;;;3.40;;
21554;SDS011;10938;44.794;-0.676;2023-05-31T05:08:45;7.82;;;4.05;;
21554;SDS011;10938;44.794;-0.676;2023-05-31T05:11:11;5.80;;;3.53;;
21554;SDS011;10938;44.794;-0.676;2023-05-31T05:13:36;9.25;;;4.18;;
21554;SDS011;10938;44.794;-0.676;2023-05-31T05:16:02;6.95;;;3.85;;
21554;SDS011;10938;44.794;-0.676;2023-05-31T05:18:27;5.57;;;3.88;;
21554;SDS011;10938;44.794;-0.676;2023-05-31T05:20:53;9.55;;;4.00;;
21554;SDS011;10938;44.794;-0.676;2023-05-31T05:23:18;10.03;;;4.10;;
21554;SDS011;10938;44.794;-0.676;2023-05-31T05:25:43;6.75;;;3.63;;
21554;SDS011;10938;44.794;-0.676;2023-05-31T05:28:09;6.35;;;3.95;;
21554;SDS011;10938;44.794;-0.676;2023-05-31T05:30:35;8.18;;;3.80;;
21554;SDS011;10938;44.794;-0.676;2023-05-31T05:33:00;6.82;;;4.00;;
21554;SDS011;10938;44.794;-0.676;2023-05-31T05:35:26;6.50;;;3.80;;
21554;SDS011;10938;44.794;-0.676;2023-05-31T05:37:51;6.57;;;4.15;;
21554;SDS011;10938;44.794;-0.676;2023-05-31T05:40:18;8.73;;;5.20;;
21554;SDS011;10938;44.794;-0.676;2023-05-31T05:42:43;6.28;;;3.90;;
21554;SDS011;10938;44.794;-0.676;2023-05-31T05:45:09;9.07;;;4.00;;
21554;SDS011;10938;44.794;-0.676;2023-05-31T05:47:35;8.20;;;4.40;;
21554;SDS011;10938;44.794;-0.676;2023-05-31T05:50:01;9.10;;;4.40;;
21554;SDS011;10938;44.794;-0.676;2023-05-31T05:52:27;10.05;;;3.85;;
21554;SDS011;10938;44.794;-0.676;2023-05-31T05:54:52;8.63;;;3.90;;
21554;SDS011;10938;44.794;-0.676;2023-05-31T05:57:17;12.43;;;4.60;;
21554;SDS011;10938;44.794;-0.676;2023-05-31T05:59:44;7.30;;;4.45;;
21554;SDS011;10938;44.794;-0.676;2023-05-31T06:02:10;7.53;;;3.85;;
21554;SDS011;10938;44.794;-0.676;2023-05-31T06:04:35;7.97;;;4.28;;
21554;SDS011;10938;44.794;-0.676;2023-05-31T06:07:01;11.53;;;4.20;;
21554;SDS011;10938;44.794;-0.676;2023-05-31T06:09:26;11.23;;;4.30;;
21554;SDS011;10938;44.794;-0.676;2023-05-31T06:11:52;8.35;;;4.07;;
21554;SDS011;10938;44.794;-0.676;2023-05-31T06:14:17;11.07;;;3.93;;
21554;SDS011;10938;44.794;-0.676;2023-05-31T06:16:42;7.50;;;4.37;;
21554;SDS011;10938;44.794;-0.676;2023-05-31T06:19:08;8.90;;;4.43;;
21554;SDS011;10938;44.794;-0.676;2023-05-31T06:21:33;6.00;;;4.30;;
21554;SDS011;10938;44.794;-0.676;2023-05-31T06:24:00;9.95;;;4.30;;
21554;SDS011;10938;44.794;-0.676;2023-05-31T06:26:25;7.20;;;4.32;;
21554;SDS011;10938;44.794;-0.676;2023-05-31T06:28:51;7.47;;;4.28;;
21554;SDS011;10938;44.794;-0.676;2023-05-31T06:31:16;7.53;;;4.10;;
21554;SDS011;10938;44.794;-0.676;2023-05-31T06:33:41;9.87;;;4.33;;
21554;SDS011;10938;44.794;-0.676;2023-05-31T06:36:07;6.97;;;4.10;;
21554;SDS011;10938;44.794;-0.676;2023-05-31T06:38:32;8.83;;;4.40;;
21554;SDS011;10938;44.794;-0.676;2023-05-31T06:40:58;8.82;;;4.82;;
21554;SDS011;10938;44.794;-0.676;2023-05-31T06:43:24;10.45;;;5.05;;
21554;SDS011;10938;44.794;-0.676;2023-05-31T06:45:50;5.35;;;4.25;;
21554;SDS011;10938;44.794;-0.676;2023-05-31T06:48:15;7.78;;;4.57;;
21554;SDS011;10938;44.794;-0.676;2023-05-31T06:50:41;10.68;;;4.63;;
21554;SDS011;10938;44.794;-0.676;2023-05-31T06:53:07;9.27;;;4.45;;
21554;SDS011;10938;44.794;-0.676;2023-05-31T06:55:34;15.32;;;4.95;;
21554;SDS011;10938;44.794;-0.676;2023-05-31T06:57:59;6.72;;;4.80;;
21554;SDS011;10938;44.794;-0.676;2023-05-31T07:00:25;7.30;;;4.50;;
21554;SDS011;10938;44.794;-0.676;2023-05-31T07:02:50;10.48;;;4.70;;
21554;SDS011;10938;44.794;-0.676;2023-05-31T07:05:16;6.90;;;5.03;;
21554;SDS011;10938;44.794;-0.676;2023-05-31T07:07:41;13.40;;;5.13;;
21554;SDS011;10938;44.794;-0.676;2023-05-31T07:10:07;7.87;;;4.50;;
21554;SDS011;10938;44.794;-0.676;2023-05-31T07:12:32;9.10;;;4.85;;
21554;SDS011;10938;44.794;-0.676;2023-05-31T07:14:58;9.37;;;4.70;;
21554;SDS011;10938;44.794;-0.676;2023-05-31T07:17:23;8.68;;;5.30;;
21554;SDS011;10938;44.794;-0.676;2023-05-31T07:19:49;7.60;;;4.75;;
21554;SDS011;10938;44.794;-0.676;2023-05-31T07:22:15;9.73;;;4.97;;
21554;SDS011;10938;44.794;-0.676;2023-05-31T07:24:41;9.25;;;4.72;;
21554;SDS011;10938;44.794;-0.676;2023-05-31T07:27:09;9.15;;;4.90;;
21554;SDS011;10938;44.794;-0.676;2023-05-31T07:29:35;8.23;;;4.78;;
21554;SDS011;10938;44.794;-0.676;2023-05-31T07:32:00;7.53;;;4.78;;
21554;SDS011;10938;44.794;-0.676;2023-05-31T07:34:28;7.65;;;5.25;;
21554;SDS011;10938;44.794;-0.676;2023-05-31T07:36:54;6.88;;;5.00;;
21554;SDS011;10938;44.794;-0.676;2023-05-31T07:39:23;8.15;;;5.15;;
21554;SDS011;10938;44.794;-0.676;2023-05-31T07:41:48;8.25;;;4.47;;
21554;SDS011;10938;44.794;-0.676;2023-05-31T07:44:13;8.67;;;5.47;;
21554;SDS011;10938;44.794;-0.676;2023-05-31T07:46:41;7.82;;;5.13;;
21554;SDS011;10938;44.794;-0.676;2023-05-31T07:49:06;10.03;;;5.10;;
21554;SDS011;10938;44.794;-0.676;2023-05-31T07:51:32;10.68;;;5.57;;
21554;SDS011;10938;44.794;-0.676;2023-05-31T07:53:57;14.97;;;5.33;;
21554;SDS011;10938;44.794;-0.676;2023-05-31T07:56:23;8.30;;;4.97;;
21554;SDS011;10938;44.794;-0.676;2023-05-31T07:58:49;10.35;;;5.85;;
21554;SDS011;10938;44.794;-0.676;2023-05-31T08:01:14;8.70;;;5.30;;
21554;SDS011;10938;44.794;-0.676;2023-05-31T08:03:40;14.50;;;6.37;;
21554;SDS011;10938;44.794;-0.676;2023-05-31T08:06:05;7.85;;;5.00;;
21554;SDS011;10938;44.794;-0.676;2023-05-31T08:08:31;9.55;;;5.80;;
21554;SDS011;10938;44.794;-0.676;2023-05-31T08:10:58;11.05;;;5.70;;
21554;SDS011;10938;44.794;-0.676;2023-05-31T08:13:23;9.20;;;5.80;;
21554;SDS011;10938;44.794;-0.676;2023-05-31T08:15:49;7.90;;;5.03;;
21554;SDS011;10938;44.794;-0.676;2023-05-31T08:18:14;13.57;;;6.05;;
21554;SDS011;10938;44.794;-0.676;2023-05-31T08:20:40;8.52;;;5.40;;
21554;SDS011;10938;44.794;-0.676;2023-05-31T08:23:05;9.63;;;5.80;;
21554;SDS011;10938;44.794;-0.676;2023-05-31T08:25:30;9.83;;;5.00;;
21554;SDS011;10938;44.794;-0.676;2023-05-31T08:27:56;6.80;;;5.23;;
21554;SDS011;10938;44.794;-0.676;2023-05-31T08:30:21;7.67;;;5.93;;
21554;SDS011;10938;44.794;-0.676;2023-05-31T08:32:46;9.57;;;5.77;;
21554;SDS011;10938;44.794;-0.676;2023-05-31T08:35:12;8.27;;;6.07;;
21554;SDS011;10938;44.794;-0.676;2023-05-31T08:37:37;10.17;;;6.00;;
21554;SDS011;10938;44.794;-0.676;2023-05-31T08:40:03;9.80;;;6.50;;
21554;SDS011;10938;44.794;-0.676;2023-05-31T08:42:40;8.35;;;6.68;;
21554;SDS011;10938;44.794;-0.676;2023-05-31T08:45:08;9.50;;;6.43;;
21554;SDS011;10938;44.794;-0.676;2023-05-31T08:47:43;7.60;;;6.55;;
21554;SDS011;10938;44.794;-0.676;2023-05-31T08:50:09;8.20;;;6.97;;
21554;SDS011;10938;44.794;-0.676;2023-05-31T08:52:35;8.52;;;6.88;;
21554;SDS011;10938;44.794;-0.676;2023-05-31T08:55:01;10.15;;;7.07;;
21554;SDS011;10938;44.794;-0.676;2023-05-31T08:57:30;12.43;;;7.03;;
21554;SDS011;10938;44.794;-0.676;2023-05-31T08:59:56;12.50;;;7.60;;
21554;SDS011;10938;44.794;-0.676;2023-05-31T09:02:21;11.85;;;6.65;;
21554;SDS011;10938;44.794;-0.676;2023-05-31T09:04:47;6.90;;;6.10;;
21554;SDS011;10938;44.794;-0.676;2023-05-31T09:07:14;7.22;;;6.53;;
21554;SDS011;10938;44.794;-0.676;2023-05-31T09:09:43;15.55;;;7.15;;
21554;SDS011;10938;44.794;-0.676;2023-05-31T09:12:08;11.20;;;6.80;;
21554;SDS011;10938;44.794;-0.676;2023-05-31T09:14:33;9.63;;;6.50;;
21554;SDS011;10938;44.794;-0.676;2023-05-31T09:16:59;10.77;;;7.30;;
21554;SDS011;10938;44.794;-0.676;2023-05-31T09:19:25;6.88;;;6.28;;
21554;SDS011;10938;44.794;-0.676;2023-05-31T09:21:51;8.73;;;7.33;;
21554;SDS011;10938;44.794;-0.676;2023-05-31T09:24:18;9.38;;;6.97;;
21554;SDS011;10938;44.794;-0.676;2023-05-31T09:27:03;9.20;;;7.93;;
21554;SDS011;10938;44.794;-0.676;2023-05-31T09:32:14;14.25;;;7.30;;
21554;SDS011;10938;44.794;-0.676;2023-05-31T09:34:39;10.05;;;6.72;;
21554;SDS011;10938;44.794;-0.676;2023-05-31T09:37:04;13.13;;;6.18;;
21554;SDS011;10938;44.794;-0.676;2023-05-31T09:39:30;7.57;;;6.20;;
21554;SDS011;10938;44.794;-0.676;2023-05-31T09:41:57;6.82;;;5.55;;
21554;SDS011;10938;44.794;-0.676;2023-05-31T09:44:26;10.95;;;6.22;;
21554;SDS011;10938;44.794;-0.676;2023-05-31T09:46:55;12.45;;;6.38;;
21554;SDS011;10938;44.794;-0.676;2023-05-31T09:49:21;8.05;;;5.72;;
21554;SDS011;10938;44.794;-0.676;2023-05-31T09:51:50;8.87;;;5.47;;
21554;SDS011;10938;44.794;-0.676;2023-05-31T09:54:19;10.63;;;5.72;;
21554;SDS011;10938;44.794;-0.676;2023-05-31T09:56:49;10.50;;;5.50;;
21554;SDS011;10938;44.794;-0.676;2023-05-31T09:59:15;8.13;;;4.87;;
21554;SDS011;10938;44.794;-0.676;2023-05-31T10:01:41;11.25;;;5.38;;
21554;SDS011;10938;44.794;-0.676;2023-05-31T10:04:12;14.23;;;5.47;;
21554;SDS011;10938;44.794;-0.676;2023-05-31T10:06:41;10.80;;;5.38;;
21554;SDS011;10938;44.794;-0.676;2023-05-31T10:09:09;8.57;;;5.05;;
21554;SDS011;10938;44.794;-0.676;2023-05-31T10:11:36;5.88;;;4.57;;
21554;SDS011;10938;44.794;-0.676;2023-05-31T10:14:08;11.38;;;4.70;;
21554;SDS011;10938;44.794;-0.676;2023-05-31T10:16:42;11.90;;;5.63;;
21554;SDS011;10938;44.794;-0.676;2023-05-31T10:19:12;9.32;;;4.82;;
21554;SDS011;10938;44.794;-0.676;2023-05-31T10:21:42;8.65;;;4.80;;
21554;SDS011;10938;44.794;-0.676;2023-05-31T10:24:16;10.18;;;4.78;;
21554;SDS011;10938;44.794;-0.676;2023-05-31T10:26:46;10.05;;;4.63;;
21554;SDS011;10938;44.794;-0.676;2023-05-31T10:29:18;8.77;;;5.22;;
21554;SDS011;10938;44.794;-0.676;2023-05-31T10:31:57;12.70;;;4.63;;
21554;SDS011;10938;44.794;-0.676;2023-05-31T10:34:26;9.98;;;4.80;;
21554;SDS011;10938;44.794;-0.676;2023-05-31T10:36:52;8.32;;;4.75;;
21554;SDS011;10938;44.794;-0.676;2023-05-31T10:39:39;7.72;;;4.38;;
21554;SDS011;10938;44.794;-0.676;2023-05-31T10:42:09;7.28;;;5.00;;
21554;SDS011;10938;44.794;-0.676;2023-05-31T10:47:24;8.15;;;4.93;;
21554;SDS011;10938;44.794;-0.676;2023-05-31T10:49:52;8.25;;;4.45;;
21554;SDS011;10938;44.794;-0.676;2023-05-31T10:52:19;9.88;;;4.45;;
21554;SDS011;10938;44.794;-0.676;2023-05-31T10:54:44;9.67;;;4.63;;
21554;SDS011;10938;44.794;-0.676;2023-05-31T10:57:12;7.80;;;4.57;;
21554;SDS011;10938;44.794;-0.676;2023-05-31T10:59:41;8.40;;;4.55;;
21554;SDS011;10938;44.794;-0.676;2023-05-31T11:02:09;8.23;;;4.45;;
21554;SDS011;10938;44.794;-0.676;2023-05-31T11:04:36;10.30;;;4.72;;
21554;SDS011;10938;44.794;-0.676;2023-05-31T11:07:11;8.38;;;4.10;;
21554;SDS011;10938;44.794;-0.676;2023-05-31T11:09:39;7.60;;;4.72;;
21554;SDS011;10938;44.794;-0.676;2023-05-31T11:12:05;7.40;;;4.18;;
21554;SDS011;10938;44.794;-0.676;2023-05-31T11:14:32;5.80;;;4.20;;
21554;SDS011;10938;44.794;-0.676;2023-05-31T11:19:28;7.75;;;4.00;;
21554;SDS011;10938;44.794;-0.676;2023-05-31T11:21:56;10.30;;;4.38;;
21554;SDS011;10938;44.794;-0.676;2023-05-31T11:24:24;7.15;;;4.30;;
21554;SDS011;10938;44.794;-0.676;2023-05-31T11:26:53;8.02;;;4.28;;
21554;SDS011;10938;44.794;-0.676;2023-05-31T11:29:19;9.60;;;4.57;;
21554;SDS011;10938;44.794;-0.676;2023-05-31T11:34:22;6.88;;;4.07;;
21554;SDS011;10938;44.794;-0.676;2023-05-31T11:36:58;10.50;;;4.32;;
21554;SDS011;10938;44.794;-0.676;2023-05-31T11:39:24;11.35;;;4.80;;
21554;SDS011;10938;44.794;-0.676;2023-05-31T11:41:53;6.80;;;4.50;;
21554;SDS011;10938;44.794;-0.676;2023-05-31T11:44:29;8.63;;;4.50;;
21554;SDS011;10938;44.794;-0.676;2023-05-31T11:46:56;6.97;;;3.80;;
21554;SDS011;10938;44.794;-0.676;2023-05-31T11:49:23;8.85;;;4.78;;
21554;SDS011;10938;44.794;-0.676;2023-05-31T11:51:53;6.37;;;4.33;;
21554;SDS011;10938;44.794;-0.676;2023-05-31T11:54:18;10.40;;;4.22;;
21554;SDS011;10938;44.794;-0.676;2023-05-31T11:56:44;10.35;;;4.70;;
21554;SDS011;10938;44.794;-0.676;2023-05-31T11:59:10;11.87;;;4.50;;
21554;SDS011;10938;44.794;-0.676;2023-05-31T12:01:38;9.90;;;4.60;;
21554;SDS011;10938;44.794;-0.676;2023-05-31T12:04:05;6.72;;;4.10;;
21554;SDS011;10938;44.794;-0.676;2023-05-31T12:06:30;11.88;;;4.38;;
21554;SDS011;10938;44.794;-0.676;2023-05-31T12:08:57;10.35;;;4.60;;
21554;SDS011;10938;44.794;-0.676;2023-05-31T12:11:23;8.85;;;4.60;;
21554;SDS011;10938;44.794;-0.676;2023-05-31T12:13:48;11.03;;;4.63;;
21554;SDS011;10938;44.794;-0.676;2023-05-31T12:16:16;10.57;;;4.80;;
21554;SDS011;10938;44.794;-0.676;2023-05-31T12:18:41;7.72;;;4.30;;
21554;SDS011;10938;44.794;-0.676;2023-05-31T12:21:07;7.33;;;4.30;;
21554;SDS011;10938;44.794;-0.676;2023-05-31T12:23:33;14.50;;;4.60;;
21554;SDS011;10938;44.794;-0.676;2023-05-31T12:26:15;6.82;;;4.38;;
21554;SDS011;10938;44.794;-0.676;2023-05-31T12:28:40;8.40;;;4.13;;
21554;SDS011;10938;44.794;-0.676;2023-05-31T12:31:07;6.38;;;4.43;;
21554;SDS011;10938;44.794;-0.676;2023-05-31T12:33:38;8.57;;;4.20;;
21554;SDS011;10938;44.794;-0.676;2023-05-31T12:36:06;9.85;;;4.78;;
21554;SDS011;10938;44.794;-0.676;2023-05-31T12:38:31;5.67;;;3.77;;
21554;SDS011;10938;44.794;-0.676;2023-05-31T12:40:58;8.38;;;4.32;;
21554;SDS011;10938;44.794;-0.676;2023-05-31T12:43:26;14.43;;;4.95;;
21554;SDS011;10938;44.794;-0.676;2023-05-31T12:45:52;6.97;;;4.23;;
21554;SDS011;10938;44.794;-0.676;2023-05-31T12:48:17;10.88;;;4.68;;
21554;SDS011;10938;44.794;-0.676;2023-05-31T12:50:47;8.13;;;4.50;;
21554;SDS011;10938;44.794;-0.676;2023-05-31T12:53:12;6.23;;;3.97;;
21554;SDS011;10938;44.794;-0.676;2023-05-31T12:55:37;9.35;;;4.50;;
21554;SDS011;10938;44.794;-0.676;2023-05-31T12:58:03;7.63;;;4.23;;
21554;SDS011;10938;44.794;-0.676;2023-05-31T13:00:28;9.57;;;4.20;;
21554;SDS011;10938;44.794;-0.676;2023-05-31T13:02:54;8.32;;;4.65;;
21554;SDS011;10938;44.794;-0.676;2023-05-31T13:05:22;9.65;;;4.63;;
21554;SDS011;10938;44.794;-0.676;2023-05-31T13:07:52;8.73;;;4.22;;
21554;SDS011;10938;44.794;-0.676;2023-05-31T13:10:18;10.18;;;4.45;;
21554;SDS011;10938;44.794;-0.676;2023-05-31T13:12:43;6.57;;;4.45;;
21554;SDS011;10938;44.794;-0.676;2023-05-31T13:15:09;10.27;;;4.97;;
21554;SDS011;10938;44.794;-0.676;2023-05-31T13:17:34;8.52;;;4.45;;
21554;SDS011;10938;44.794;-0.676;2023-05-31T13:19:59;7.13;;;4.50;;
21554;SDS011;10938;44.794;-0.676;2023-05-31T13:22:24;12.70;;;4.77;;
21554;SDS011;10938;44.794;-0.676;2023-05-31T13:24:50;9.00;;;4.47;;
21554;SDS011;10938;44.794;-0.676;2023-05-31T13:27:15;10.73;;;4.50;;
21554;SDS011;10938;44.794;-0.676;2023-05-31T13:29:41;6.57;;;4.00;;
21554;SDS011;10938;44.794;-0.676;2023-05-31T13:32:06;8.33;;;4.90;;
21554;SDS011;10938;44.794;-0.676;2023-05-31T13:34:32;5.72;;;4.50;;
21554;SDS011;10938;44.794;-0.676;2023-05-31T13:36:57;10.88;;;4.95;;
21554;SDS011;10938;44.794;-0.676;2023-05-31T13:39:23;6.45;;;4.70;;
21554;SDS011;10938;44.794;-0.676;2023-05-31T13:41:48;9.00;;;4.80;;
21554;SDS011;10938;44.794;-0.676;2023-05-31T13:44:14;6.50;;;4.33;;
21554;SDS011;10938;44.794;-0.676;2023-05-31T13:46:40;6.45;;;4.88;;
21554;SDS011;10938;44.794;-0.676;2023-05-31T13:49:06;8.30;;;4.47;;
21554;SDS011;10938;44.794;-0.676;2023-05-31T13:51:31;7.23;;;4.10;;
21554;SDS011;10938;44.794;-0.676;2023-05-31T13:53:57;6.22;;;4.63;;
21554;SDS011;10938;44.794;-0.676;2023-05-31T13:56:29;8.07;;;4.63;;
21554;SDS011;10938;44.794;-0.676;2023-05-31T13:58:54;8.70;;;4.50;;
21554;SDS011;10938;44.794;-0.676;2023-05-31T14:01:19;5.68;;;4.30;;
21554;SDS011;10938;44.794;-0.676;2023-05-31T14:03:45;6.77;;;4.40;;
21554;SDS011;10938;44.794;-0.676;2023-05-31T14:06:26;7.13;;;4.45;;
21554;SDS011;10938;44.794;-0.676;2023-05-31T14:08:52;11.15;;;5.07;;
21554;SDS011;10938;44.794;-0.676;2023-05-31T14:11:18;9.80;;;5.10;;
21554;SDS011;10938;44.794;-0.676;2023-05-31T14:13:43;6.78;;;4.85;;
21554;SDS011;10938;44.794;-0.676;2023-05-31T14:16:08;9.87;;;4.60;;
21554;SDS011;10938;44.794;-0.676;2023-05-31T14:18:34;8.37;;;4.33;;
21554;SDS011;10938;44.794;-0.676;2023-05-31T14:21:00;7.43;;;4.82;;
21554;SDS011;10938;44.794;-0.676;2023-05-31T14:23:25;6.90;;;4.63;;
21554;SDS011;10938;44.794;-0.676;2023-05-31T14:25:51;11.38;;;5.10;;
21554;SDS011;10938;44.794;-0.676;2023-05-31T14:28:16;7.43;;;4.67;;
21554;SDS011;10938;44.794;-0.676;2023-05-31T14:30:41;9.70;;;4.57;;
21554;SDS011;10938;44.794;-0.676;2023-05-31T14:33:07;7.13;;;4.80;;
21554;SDS011;10938;44.794;-0.676;2023-05-31T14:35:32;7.67;;;4.70;;
21554;SDS011;10938;44.794;-0.676;2023-05-31T14:37:57;8.27;;;4.40;;
21554;SDS011;10938;44.794;-0.676;2023-05-31T14:40:22;9.87;;;4.73;;
21554;SDS011;10938;44.794;-0.676;2023-05-31T14:42:51;10.10;;;5.25;;
21554;SDS011;10938;44.794;-0.676;2023-05-31T14:45:16;7.63;;;4.83;;